Map

Track Data

SID SEASON NUMBER BASIN SUBBASIN NAME ISO_TIME NATURE LAT LON WMO_WIND WMO_PRES WMO_AGENCY TRACK_TYPE DIST2LAND LANDFALL IFLAG USA_AGENCY USA_ATCF_ID USA_LAT USA_LON USA_RECORD USA_STATUS USA_WIND USA_PRES USA_SSHS USA_R34_NE USA_R34_SE USA_R34_SW USA_R34_NW USA_R50_NE USA_R50_SE USA_R50_SW USA_R50_NW USA_R64_NE USA_R64_SE USA_R64_SW USA_R64_NW USA_POCI USA_ROCI USA_RMW USA_EYE TOKYO_LAT TOKYO_LON TOKYO_GRADE TOKYO_WIND TOKYO_PRES TOKYO_R50_DIR TOKYO_R50_LONG TOKYO_R50_SHORT TOKYO_R30_DIR TOKYO_R30_LONG TOKYO_R30_SHORT TOKYO_LAND CMA_LAT CMA_LON CMA_CAT CMA_WIND CMA_PRES HKO_LAT HKO_LON HKO_CAT HKO_WIND HKO_PRES NEWDELHI_LAT NEWDELHI_LON NEWDELHI_GRADE NEWDELHI_WIND NEWDELHI_PRES NEWDELHI_CI NEWDELHI_DP NEWDELHI_POCI REUNION_LAT REUNION_LON REUNION_TYPE REUNION_WIND REUNION_PRES REUNION_TNUM REUNION_CI REUNION_RMW REUNION_R34_NE REUNION_R34_SE REUNION_R34_SW REUNION_R34_NW REUNION_R50_NE REUNION_R50_SE REUNION_R50_SW REUNION_R50_NW REUNION_R64_NE REUNION_R64_SE REUNION_R64_SW REUNION_R64_NW BOM_LAT BOM_LON BOM_TYPE BOM_WIND BOM_PRES BOM_TNUM BOM_CI BOM_RMW BOM_R34_NE BOM_R34_SE BOM_R34_SW BOM_R34_NW BOM_R50_NE BOM_R50_SE BOM_R50_SW BOM_R50_NW BOM_R64_NE BOM_R64_SE BOM_R64_SW BOM_R64_NW BOM_ROCI BOM_POCI BOM_EYE BOM_POS_METHOD BOM_PRES_METHOD NADI_LAT NADI_LON NADI_CAT NADI_WIND NADI_PRES WELLINGTON_LAT WELLINGTON_LON WELLINGTON_WIND WELLINGTON_PRES DS824_LAT DS824_LON DS824_STAGE DS824_WIND DS824_PRES TD9636_LAT TD9636_LON TD9636_STAGE TD9636_WIND TD9636_PRES TD9635_LAT TD9635_LON TD9635_WIND TD9635_PRES TD9635_ROCI NEUMANN_LAT NEUMANN_LON NEUMANN_CLASS NEUMANN_WIND NEUMANN_PRES MLC_LAT MLC_LON MLC_CLASS MLC_WIND MLC_PRES USA_GUST BOM_GUST BOM_GUST_PER REUNION_GUST REUNION_GUST_PER USA_SEAHGT USA_SEARAD_NE USA_SEARAD_SE USA_SEARAD_SW USA_SEARAD_NW STORM_SPEED STORM_DIR
1952162N15118 1952 31 WP MM CHARLOTTE 1952-06-09 12:00:00 TS 14.8500 117.900 992 tokyo main 221 221 _OO___________ -1 14.9000 117.900 2 992 0 0 0 14.8000 117.900 1 29 992 4 267
1952162N15118 1952 31 WP MM CHARLOTTE 1952-06-09 15:00:00 TS 14.8400 117.712 main 245 245 _PP___________ -1 14.8975 117.713 2 991 0 0 14.7825 117.712 1 33 991 4 270
1952162N15118 1952 31 WP MM CHARLOTTE 1952-06-09 18:00:00 TS 14.8500 117.500 990 tokyo main 263 266 _OO___________ -1 14.9000 117.500 2 990 0 0 0 14.8000 117.500 2 38 990 5 277
1952162N15118 1952 31 WP MM CHARLOTTE 1952-06-09 21:00:00 TS 14.8988 117.250 main 284 290 _PP___________ -1 14.9200 117.250 2 989 0 0 14.8775 117.250 2 43 989 8 309
1952162N15118 1952 31 WP MM CHARLOTTE 1952-06-10 00:00:00 TS 15.3667 116.833 988 tokyo main 317 315 OOO______OOO__ jtwc_wp WP011952 16.1000 116.500 30 -1 15.0000 117.000 9 988 0 0 0 15.0000 117.000 3 48 988 16.1000 116.500 TC 30 16.1000 116.500 1 30 16.1000 116.500 30 998 180 11 321
1952162N15118 1952 31 WP MM CHARLOTTE 1952-06-10 03:00:00 TS 15.7557 116.541 main 343 342 PPP______PPP__ WP011952 16.4201 116.280 35 0 15.1400 116.792 9 987 0 0 15.0900 116.785 3 53 987 16.4201 116.280 TC 35 16.3252 116.335 1 35 16.4201 116.280 35 997 240 9 327
1952162N15118 1952 31 WP MM CHARLOTTE 1952-06-10 06:00:00 TS 16.1405 116.311 987 tokyo main 363 363 OOO______OPO__ jtwc_wp WP011952 16.7000 116.100 40 0 15.4000 116.600 9 987 0 0 0 15.3000 116.600 3 58 987 16.7000 116.100 TC 40 16.5702 116.175 1 40 16.7000 116.100 40 996 300 9 333
1952162N15118 1952 31 WP MM CHARLOTTE 1952-06-10 09:00:00 TS 16.5329 116.135 main 388 388 PPP______PPP__ WP011952 16.9275 115.985 45 0 15.8125 116.385 9 986 0 0 15.7475 116.443 3 58 986 16.9275 115.985 TC 45 16.8551 116.028 1 45 16.9275 115.985 45 994 330 8 340
1952162N15118 1952 31 WP MM CHARLOTTE 1952-06-10 12:00:00 TS 16.9000 116.017 985 tokyo main 407 407 OOO______OOO__ jtwc_wp WP011952 17.2000 115.900 50 0 16.3000 116.200 9 985 0 0 0 16.3000 116.300 3 58 985 17.2000 115.900 TC 50 17.2000 115.900 2 50 17.2000 115.900 50 992 360 8 345
1952162N15118 1952 31 WP MM CHARLOTTE 1952-06-10 15:00:00 TS 17.3386 115.908 main 430 430 PPP______PPP__ WP011952 17.6275 115.800 50 0 16.7349 116.100 9 984 0 0 16.8000 116.157 3 58 984 17.6275 115.800 TC 50 17.6143 115.794 2 51 17.6275 115.800 50 988 360 9 347
1952162N15118 1952 31 WP MM CHARLOTTE 1952-06-10 18:00:00 TS 17.8108 115.800 983 tokyo main 457 457 OOO______OPO__ jtwc_wp WP011952 18.1000 115.700 50 0 17.2000 116.000 9 983 0 0 0 17.3000 116.000 3 58 983 18.1000 115.700 TC 50 18.0649 115.700 2 52 18.1000 115.700 50 985 360 10 347
1952162N15118 1952 31 WP MM CHARLOTTE 1952-06-10 21:00:00 TS 18.2784 115.683 main 470 421 PPP______PPP__ WP011952 18.5300 115.607 52 0 17.7574 115.837 9 982 0 0 17.8149 115.830 3 58 982 18.5300 115.607 TC 52 18.5080 115.606 2 53 18.5300 115.607 52 981 330 9 344
1952162N15118 1952 31 WP MM CHARLOTTE 1952-06-11 00:00:00 TS 18.7000 115.533 981 tokyo main 421 383 OOO______OOO__ jtwc_wp WP011952 18.9000 115.500 55 0 18.3000 115.600 9 981 0 0 0 18.3000 115.600 3 58 981 18.9000 115.500 TC 55 18.9000 115.500 2 55 18.9000 115.500 55 977 300 8 336
1952162N15118 1952 31 WP MM CHARLOTTE 1952-06-11 03:00:00 TS 19.0384 115.328 main 383 345 PPP______PPP__ WP011952 19.1800 115.357 55 0 18.7601 115.250 9 979 0 0 18.7451 115.258 3 63 979 19.1800 115.357 TC 55 19.1850 115.386 2 56 19.1800 115.357 55 973 300 7 326
1952162N15118 1952 31 WP MM CHARLOTTE 1952-06-11 06:00:00 TS 19.3024 115.109 978 tokyo main 345 319 OOO______OPO__ jtwc_wp WP011952 19.4000 115.200 55 0 19.1000 114.900 9 978 0 0 0 19.1000 114.900 4 68 978 19.4000 115.200 TC 55 19.4146 115.254 2 57 19.4000 115.200 55 970 300 6 322
1952162N15118 1952 31 WP MM CHARLOTTE 1952-06-11 09:00:00 TS 19.5061 114.939 main 319 295 PPP______PPP__ WP011952 19.6074 115.065 57 0 19.2722 114.707 9 974 0 0 19.3299 114.635 4 68 974 19.6074 115.065 TC 57 19.6119 115.096 2 58 19.6074 115.065 57 968 330 5 318
1952162N15118 1952 31 WP MM CHARLOTTE 1952-06-11 12:00:00 TS 19.6833 114.750 971 tokyo main 295 269 OOO______OOO__ jtwc_wp WP011952 19.8000 114.900 60 0 19.4000 114.500 9 971 0 0 0 19.5000 114.400 4 68 971 19.8000 114.900 TC 60 19.8000 114.900 2 60 19.8000 114.900 60 967 360 6 313
1952162N15118 1952 31 WP MM CHARLOTTE 1952-06-11 15:00:00 TS 19.8921 114.492 main 269 236 PPP______PPP__ WP011952 20.0000 114.672 62 0 19.6502 114.108 9 968 0 0 19.6999 114.157 4 72 968 20.0000 114.672 TC 62 20.0024 114.668 2 62 20.0000 114.672 62 966 360 7 309
1952162N15118 1952 31 WP MM CHARLOTTE 1952-06-11 18:00:00 TS 20.1000 114.200 966 tokyo main 236 201 OOO______OOO__ jtwc_wp WP011952 20.2000 114.400 65 1 19.9000 113.700 9 966 0 0 0 19.9000 113.900 4 77 966 20.2000 114.400 TC 65 20.2000 114.400 3 65 20.2000 114.400 65 966 360 7 307
1952162N15118 1952 31 WP MM CHARLOTTE 1952-06-11 21:00:00 TS 20.3000 113.908 main 201 168 PPP______PPP__ WP011952 20.4075 114.100 67 1 20.0648 113.427 9 964 0 0 20.1074 113.615 4 77 964 20.4075 114.100 TC 67 20.4049 114.103 3 67 20.4075 114.100 67 965 360 7 305
1952162N15118 1952 31 WP MM CHARLOTTE 1952-06-12 00:00:00 TS 20.4833 113.617 962 tokyo main 168 151 OOO______OOO__ jtwc_wp WP011952 20.6000 113.800 70 1 20.2000 113.200 9 962 0 0 0 20.3000 113.300 4 77 962 20.6000 113.800 TC 70 20.6000 113.800 4 70 20.6000 113.800 70 964 360 6 303
1952162N15118 1952 31 WP MM CHARLOTTE 1952-06-12 03:00:00 TS 20.6492 113.345 main 148 123 PPP______PPP__ WP011952 20.7574 113.542 77 1 20.3574 112.957 9 961 0 0 20.4726 112.943 4 77 961 20.7574 113.542 TC 77 20.7932 113.541 4 73 20.7574 113.542 77 963 330 6 302
1952162N15118 1952 31 WP MM CHARLOTTE 1952-06-12 06:00:00 TS 20.7946 113.083 960 tokyo main 123 102 OOO______OPO__ jtwc_wp WP011952 20.9000 113.300 85 2 20.5000 112.700 9 960 0 0 0 20.6000 112.600 4 77 960 20.9000 113.300 TC 85 20.9677 113.300 4 77 20.9000 113.300 85 963 300 6 301
1952162N15118 1952 31 WP MM CHARLOTTE 1952-06-12 09:00:00 TS 20.9330 112.829 main 102 84 PPP______PPP__ WP011952 21.0649 113.058 85 2 20.6374 112.415 9 960 0 0 20.6574 112.327 4 77 960 21.0649 113.058 TC 85 21.1085 113.060 4 81 21.0649 113.058 85 962 270 5 296
1952162N15118 1952 31 WP MM CHARLOTTE 1952-06-12 12:00:00 TS 21.0333 112.567 961 tokyo main 84 67 OOO______OOO__ jtwc_wp WP011952 21.2000 112.800 85 2 20.7000 112.100 9 961 0 0 0 20.7000 112.100 4 77 961 21.2000 112.800 TC 85 21.2000 112.800 4 85 21.2000 112.800 85 962 240 5 286
1952162N15118 1952 31 WP MM CHARLOTTE 1952-06-12 15:00:00 TS 21.0851 112.277 main 67 59 PPP______PPP__ WP011952 21.2874 112.515 82 1 20.6301 111.742 9 962 0 0 20.7850 111.885 4 72 965 21.2874 112.515 TC 82 21.2335 112.488 4 81 21.2874 112.515 82 966 300 6 275
1952162N15118 1952 31 WP MM CHARLOTTE 1952-06-12 18:00:00 TS 21.0863 111.976 964 tokyo main 59 45 OOO______OPO__ jtwc_wp WP011952 21.3000 112.200 80 1 20.5000 111.400 9 964 0 0 0 20.9000 111.700 4 68 970 21.3000 112.200 TC 80 21.2176 112.157 4 77 21.3000 112.200 80 970 360 6 266
1952162N15118 1952 31 WP MM CHARLOTTE 1952-06-12 21:00:00 TS 21.0438 111.671 main 56 45 PPP______PPP__ WP011952 21.2226 111.842 75 1 20.3849 111.143 9 966 0 0 21.0425 111.535 4 63 975 21.2226 111.842 TC 75 21.1679 111.823 4 73 21.2226 111.842 75 973 360 6 259
1952162N15118 1952 31 WP MM CHARLOTTE 1952-06-13 00:00:00 TS 20.9833 111.383 968 tokyo main 45 44 OOO______OOO__ jtwc_wp WP011952 21.1000 111.500 70 1 20.3000 110.900 9 968 0 0 0 21.2000 111.400 3 58 980 21.1000 111.500 TC 70 21.1000 111.500 4 70 21.1000 111.500 70 976 360 5 257
1952162N15118 1952 31 WP MM CHARLOTTE 1952-06-13 03:00:00 TS 20.9262 111.128 main 59 45 PPP______PPP__ WP011952 20.9924 111.243 67 1 20.2626 110.585 9 969 0 0 21.3350 111.285 3 53 982 20.9924 111.243 TC 67 20.9826 111.170 4 67 20.9924 111.243 67 978 360 5 259
1952162N15118 1952 31 WP MM CHARLOTTE 1952-06-13 06:00:00 TS 20.8934 110.893 971 tokyo main 45 35 OOO______OPO__ jtwc_wp WP011952 20.9000 111.000 65 1 20.3000 110.300 9 971 0 0 0 21.5000 111.200 3 48 985 20.9000 111.000 TC 65 20.8602 110.859 4 65 20.9000 111.000 65 980 360 4 264
1952162N15118 1952 31 WP MM CHARLOTTE 1952-06-13 09:00:00 TS 20.8759 110.652 main 35 22 PPP______PPP__ WP011952 20.7900 110.700 62 0 20.3674 110.105 9 972 0 0 21.7350 111.113 3 43 986 20.7900 110.700 TC 62 20.7826 110.595 4 62 20.7900 110.700 62 982 330 4 280
1952162N15118 1952 31 WP MM CHARLOTTE 1952-06-13 12:00:00 TS 20.9667 110.450 974 tokyo main 22 0 OOO______OOO__ jtwc_wp WP011952 20.8000 110.400 60 0 20.6000 110.000 9 974 0 0 0 22.0000 111.100 2 38 988 20.8000 110.400 TC 60 20.8000 110.400 2 60 20.8000 110.400 60 984 300 5 316
1952162N15118 1952 31 WP MM CHARLOTTE 1952-06-13 15:00:00 TS 21.2543 110.259 main 0 0 PPP______PPP__ WP011952 21.0550 110.076 60 0 21.1347 109.903 9 975 0 0 22.2724 111.182 2 33 989 21.0550 110.076 TC 60 20.9536 110.243 2 57 21.0550 110.076 60 985 330 7 341
1952162N15118 1952 31 WP MM CHARLOTTE 1952-06-13 18:00:00 TS 21.6011 110.211 977 tokyo main 0 0 OOO______OPO__ jtwc_wp WP011952 21.4000 109.900 60 0 21.7000 110.000 9 977 0 0 0 22.5000 111.400 1 29 990 21.4000 109.900 TC 60 21.2068 110.164 2 55 21.4000 109.900 60 987 360 6 14
1952162N15118 1952 31 WP MM CHARLOTTE 1952-06-13 21:00:00 TS 21.8362 110.412 main 0 0 PPP______PPP__ WP011952 21.6275 110.025 55 0 21.9877 110.418 9 978 0 0 22.6153 111.800 1 29 991 21.6275 110.025 TC 55 21.5316 110.178 2 52 21.6275 110.025 55 988 360 7 45
1952162N15118 1952 31 WP MM CHARLOTTE 1952-06-14 00:00:00 TS 22.0833 110.733 980 tokyo main 0 0 OOO______OOO__ jtwc_wp WP011952 21.9000 110.300 50 0 22.2000 111.000 9 980 0 0 0 22.7000 112.200 1 29 993 21.9000 110.300 TC 50 21.9000 110.300 2 50 21.9000 110.300 50 990 360 8 41
1952162N15118 1952 31 WP MM CHARLOTTE 1952-06-14 03:00:00 TS 22.4442 110.992 main 0 0 PPP______PPP__ WP011952 22.3348 110.513 50 0 22.5222 111.527 9 982 0 0 22.8423 112.388 1 24 993 22.3348 110.513 TC 50 22.2962 110.501 2 47 22.3348 110.513 50 991 330 9 35
1952162N15118 1952 31 WP MM CHARLOTTE 1952-06-14 06:00:00 TS 22.8203 111.302 984 tokyo main 0 0 OOO______OPO__ jtwc_wp WP011952 22.8000 110.800 50 0 22.8000 112.100 9 984 0 0 0 23.0000 112.500 0 19 993 22.8000 110.800 TC 50 22.7218 110.811 2 45 22.8000 110.800 50 992 300 9 44
1952162N15118 1952 31 WP MM CHARLOTTE 1952-06-14 09:00:00 TS 23.1273 111.702 main 0 0 PPP______PPP__ WP011952 23.1874 111.205 45 0 22.9076 112.751 9 985 0 0 23.1574 112.628 0 18 994 23.1874 111.205 TC 45 23.1366 111.216 2 42 23.1874 111.205 45 992 270 10 55
1952162N15118 1952 31 WP MM CHARLOTTE 1952-06-14 12:00:00 TS 23.3833 112.167 986 tokyo main 0 0 OOO______OOO__ jtwc_wp WP011952 23.5000 111.700 40 0 23.0000 113.400 9 986 0 0 0 23.3000 112.800 0 17 996 23.5000 111.700 TC 40 23.5000 111.700 2 40 23.5000 111.700 40 993 240 10 62
1952162N15118 1952 31 WP MM CHARLOTTE 1952-06-14 15:00:00 TS 23.5985 112.658 main 0 0 PPP______PPP__ WP011952 23.7223 112.220 40 0 23.2346 113.965 9 987 0 0 23.4075 113.078 0 17 998 23.7223 112.220 TC 40 23.7822 112.246 2 37 23.7223 112.220 40 994 270 11 70
1952162N15118 1952 31 WP MM CHARLOTTE 1952-06-14 18:00:00 TS 23.7542 113.266 988 tokyo main 0 0 OOO______OPO__ jtwc_wp WP011952 23.9000 112.800 40 0 23.5000 114.500 9 988 0 0 0 23.5000 113.400 0 17 1000 23.9000 112.800 TC 40 23.9949 112.838 2 35 23.9000 112.800 40 995 300 12 76
1952162N15118 1952 31 WP MM CHARLOTTE 1952-06-14 21:00:00 TS 23.8742 113.903 main 0 0 PPP______PPP__ WP011952 24.0931 113.434 35 0 23.6848 115.051 9 989 0 0 23.5923 113.678 0 17 1000 24.0931 113.434 TC 35 24.1601 113.461 2 32 24.0931 113.434 35 995 270 13 79
1952162N15118 1952 31 WP MM CHARLOTTE 1952-06-15 00:00:00 TS 23.9909 114.618 990 tokyo main 0 0 OOO______OOO__ jtwc_wp WP011952 24.3000 114.100 30 -1 23.9000 115.600 9 990 0 0 0 23.7000 114.000 0 17 1000 24.3000 114.100 TC 30 24.3000 114.100 1 30 24.3000 114.100 30 996 240 15 82
1952162N15118 1952 31 WP MM CHARLOTTE 1952-06-15 03:00:00 TS 24.0984 115.578 main 0 0 _PP___________ WP011952 -1 24.2274 116.157 9 991 0 0 23.8404 114.420 0 17 1001 TC 1 16 73
1952162N15118 1952 31 WP MM CHARLOTTE 1952-06-15 06:00:00 TS 24.4800 116.340 992 tokyo main 0 0 _OO___________ -1 24.6000 116.700 9 992 0 0 0 24.0000 114.900 0 17 1002 1 17 60
1952162N15118 1952 31 WP MM CHARLOTTE 1952-06-15 09:00:00 NR 24.9423 117.208 main 0 0 _P____________ -1 24.9423 117.208 9 993 0 0 0 1 15 56
1952162N15118 1952 31 WP MM CHARLOTTE 1952-06-15 12:00:00 NR 25.3000 117.700 995 tokyo main 0 0 _O____________ -1 25.3000 117.700 9 995 0 0 0 12 50
1952162N15118 1952 31 WP MM CHARLOTTE 1952-06-15 15:00:00 NR 25.6924 118.208 main 0 0 _P____________ -1 25.6924 118.208 9 995 0 0 12 48
1952162N15118 1952 31 WP MM CHARLOTTE 1952-06-15 18:00:00 NR 26.1000 118.700 996 tokyo main 0 0 _O____________ -1 26.1000 118.700 9 996 0 0 0 12 47
1952162N15118 1952 31 WP MM CHARLOTTE 1952-06-15 21:00:00 NR 26.4924 119.173 main 0 0 _P____________ -1 26.4924 119.173 9 997 0 0 11 45
1952162N15118 1952 31 WP MM CHARLOTTE 1952-06-16 00:00:00 NR 26.9000 119.600 998 tokyo main 0 0 _O____________ -1 26.9000 119.600 9 998 0 0 0 11 38
1952162N15118 1952 31 WP MM CHARLOTTE 1952-06-16 03:00:00 NR 27.3569 119.921 main 0 0 _P____________ -1 27.3569 119.921 9 999 0 0 11 35
1952162N15118 1952 31 WP MM CHARLOTTE 1952-06-16 06:00:00 ET 27.8000 120.300 1000 tokyo main 0 0 _O____________ -1 27.8000 120.300 6 1000 0 0 0 12 48
1952162N15118 1952 31 WP MM CHARLOTTE 1952-06-16 09:00:00 ET 28.1730 120.927 main 0 0 _P____________ -1 28.1730 120.927 6 1000 0 0 13 59
1952162N15118 1952 31 WP MM CHARLOTTE 1952-06-16 12:00:00 ET 28.5000 121.600 1001 tokyo main 9 9 _O____________ -1 28.5000 121.600 6 1001 0 0 0 12 59
1952162N15118 1952 31 WP MM CHARLOTTE 1952-06-16 15:00:00 ET 28.8070 122.116 main 38 38 _P____________ -1 28.8070 122.116 6 1002 0 0 11 56
1952162N15118 1952 31 WP MM CHARLOTTE 1952-06-16 18:00:00 ET 29.1000 122.600 1003 tokyo main 59 59 _O____________ -1 29.1000 122.600 6 1003 0 0 0 10 56
1952162N15118 1952 31 WP MM CHARLOTTE 1952-06-16 21:00:00 ET 29.3993 123.106 main 108 108 _P____________ -1 29.3993 123.106 6 1003 0 0 11 58
1952162N15118 1952 31 WP MM CHARLOTTE 1952-06-17 00:00:00 ET 29.7000 123.700 1004 tokyo main 173 173 _O____________ -1 29.7000 123.700 6 1004 0 0 0 13 66
1952162N15118 1952 31 WP MM CHARLOTTE 1952-06-17 03:00:00 ET 29.9175 124.457 main 250 250 _P____________ -1 29.9175 124.457 6 1005 0 0 15 67
1952162N15118 1952 31 WP MM CHARLOTTE 1952-06-17 06:00:00 ET 30.3000 125.300 1006 tokyo main 331 246 _O____________ -1 30.3000 125.300 6 1006 0 0 0 19 52
1952162N15118 1952 31 WP MM CHARLOTTE 1952-06-17 09:00:00 ET 31.0827 126.171 main 234 147 _P____________ -1 31.0827 126.171 6 1006 0 0 22 41
1952162N15118 1952 31 WP MM CHARLOTTE 1952-06-17 12:00:00 ET 32.0000 127.000 1007 tokyo main 138 92 _O____________ -1 32.0000 127.000 6 1007 0 0 0 22 36
1952162N15118 1952 31 WP MM CHARLOTTE 1952-06-17 15:00:00 ET 32.8386 127.651 main 100 94 _P____________ -1 32.8386 127.651 6 1007 0 0 19 36
1952162N15118 1952 31 WP MM CHARLOTTE 1952-06-17 18:00:00 ET 33.5000 128.300 1008 tokyo main 122 72 _O____________ -1 33.5000 128.300 6 1008 0 0 0 16 50
1952162N15118 1952 31 WP MM CHARLOTTE 1952-06-17 21:00:00 ET 33.8470 129.100 main 72 48 _P____________ -1 33.8470 129.100 6 1008 0 0 15 70
1952162N15118 1952 31 WP MM CHARLOTTE 1952-06-18 00:00:00 ET 34.0000 130.000 1008 tokyo main 45 _O____________ -1 34.0000 130.000 6 1008 0 0 0 15 78

Digital Typhoon Data and Search

About IBTrACS Database

This database is a web-friendly format of International Best Track Archive for Climate Stewardship (IBTrACS), a global best track data archive curated by NOAA dating back to 1842.

Updated: 2021-12-03